sensor_id;sensor_type;location;lat;lon;timestamp;P1;durP1;ratioP1;P2;durP2;ratioP2
11711;SDS011;5912;51.034;6.984;2023-08-24T00:01:48;4.93;;;3.58;;
11711;SDS011;5912;51.034;6.984;2023-08-24T00:04:29;5.93;;;3.70;;
11711;SDS011;5912;51.034;6.984;2023-08-24T00:07:00;4.78;;;3.85;;
11711;SDS011;5912;51.034;6.984;2023-08-24T00:12:18;6.53;;;3.70;;
11711;SDS011;5912;51.034;6.984;2023-08-24T00:15:02;5.13;;;3.60;;
11711;SDS011;5912;51.034;6.984;2023-08-24T00:17:28;5.53;;;3.78;;
11711;SDS011;5912;51.034;6.984;2023-08-24T00:19:53;4.30;;;3.40;;
11711;SDS011;5912;51.034;6.984;2023-08-24T00:22:18;5.72;;;3.97;;
11711;SDS011;5912;51.034;6.984;2023-08-24T00:24:44;6.07;;;3.65;;
11711;SDS011;5912;51.034;6.984;2023-08-24T00:27:09;5.30;;;3.38;;
11711;SDS011;5912;51.034;6.984;2023-08-24T00:29:50;4.53;;;3.50;;
11711;SDS011;5912;51.034;6.984;2023-08-24T00:32:18;4.25;;;3.28;;
11711;SDS011;5912;51.034;6.984;2023-08-24T00:34:43;4.95;;;3.50;;
11711;SDS011;5912;51.034;6.984;2023-08-24T00:37:09;4.80;;;3.60;;
11711;SDS011;5912;51.034;6.984;2023-08-24T00:39:37;4.60;;;3.80;;
11711;SDS011;5912;51.034;6.984;2023-08-24T00:47:54;5.53;;;3.92;;
11711;SDS011;5912;51.034;6.984;2023-08-24T00:50:26;3.92;;;3.53;;
11711;SDS011;5912;51.034;6.984;2023-08-24T00:52:51;6.18;;;3.88;;
11711;SDS011;5912;51.034;6.984;2023-08-24T00:55:23;4.55;;;3.15;;
11711;SDS011;5912;51.034;6.984;2023-08-24T00:57:49;7.20;;;3.58;;
11711;SDS011;5912;51.034;6.984;2023-08-24T01:00:22;4.85;;;3.78;;
11711;SDS011;5912;51.034;6.984;2023-08-24T01:02:47;5.28;;;3.70;;
11711;SDS011;5912;51.034;6.984;2023-08-24T01:05:21;4.80;;;3.35;;
11711;SDS011;5912;51.034;6.984;2023-08-24T01:11:05;5.32;;;3.92;;
11711;SDS011;5912;51.034;6.984;2023-08-24T01:14:16;5.95;;;3.40;;
11711;SDS011;5912;51.034;6.984;2023-08-24T01:17:43;6.22;;;3.50;;
11711;SDS011;5912;51.034;6.984;2023-08-24T01:20:12;5.60;;;3.72;;
11711;SDS011;5912;51.034;6.984;2023-08-24T01:22:56;4.15;;;3.25;;
11711;SDS011;5912;51.034;6.984;2023-08-24T01:25:40;4.22;;;3.60;;
11711;SDS011;5912;51.034;6.984;2023-08-24T01:28:27;4.60;;;3.40;;
11711;SDS011;5912;51.034;6.984;2023-08-24T01:30:53;3.75;;;3.22;;
11711;SDS011;5912;51.034;6.984;2023-08-24T01:33:18;5.93;;;4.05;;
11711;SDS011;5912;51.034;6.984;2023-08-24T01:35:44;5.53;;;4.03;;
11711;SDS011;5912;51.034;6.984;2023-08-24T01:38:21;6.78;;;3.90;;
11711;SDS011;5912;51.034;6.984;2023-08-24T01:43:52;5.35;;;3.70;;
11711;SDS011;5912;51.034;6.984;2023-08-24T01:46:20;4.95;;;3.13;;
11711;SDS011;5912;51.034;6.984;2023-08-24T01:51:47;6.10;;;3.65;;
11711;SDS011;5912;51.034;6.984;2023-08-24T01:54:13;6.22;;;3.80;;
11711;SDS011;5912;51.034;6.984;2023-08-24T01:56:39;5.57;;;3.70;;
11711;SDS011;5912;51.034;6.984;2023-08-24T01:59:16;4.72;;;3.28;;
11711;SDS011;5912;51.034;6.984;2023-08-24T02:01:48;3.78;;;3.03;;
11711;SDS011;5912;51.034;6.984;2023-08-24T02:04:19;5.40;;;3.72;;
11711;SDS011;5912;51.034;6.984;2023-08-24T02:06:46;4.95;;;3.30;;
11711;SDS011;5912;51.034;6.984;2023-08-24T02:09:14;4.53;;;3.40;;
11711;SDS011;5912;51.034;6.984;2023-08-24T02:11:41;4.88;;;3.55;;
11711;SDS011;5912;51.034;6.984;2023-08-24T02:14:19;4.80;;;3.40;;
11711;SDS011;5912;51.034;6.984;2023-08-24T02:16:44;6.00;;;3.55;;
11711;SDS011;5912;51.034;6.984;2023-08-24T02:19:13;5.53;;;3.90;;
11711;SDS011;5912;51.034;6.984;2023-08-24T02:21:38;4.13;;;3.28;;
11711;SDS011;5912;51.034;6.984;2023-08-24T02:24:04;6.20;;;3.45;;
11711;SDS011;5912;51.034;6.984;2023-08-24T02:27:00;5.53;;;3.55;;
11711;SDS011;5912;51.034;6.984;2023-08-24T02:29:31;4.63;;;3.47;;
11711;SDS011;5912;51.034;6.984;2023-08-24T02:32:00;5.68;;;3.38;;
11711;SDS011;5912;51.034;6.984;2023-08-24T02:34:31;5.90;;;3.47;;
11711;SDS011;5912;51.034;6.984;2023-08-24T02:37:00;3.92;;;3.50;;
11711;SDS011;5912;51.034;6.984;2023-08-24T02:39:28;4.53;;;3.40;;
11711;SDS011;5912;51.034;6.984;2023-08-24T02:42:09;3.22;;;2.92;;
11711;SDS011;5912;51.034;6.984;2023-08-24T02:44:34;3.47;;;2.90;;
11711;SDS011;5912;51.034;6.984;2023-08-24T02:47:02;3.25;;;2.78;;
11711;SDS011;5912;51.034;6.984;2023-08-24T02:49:28;4.25;;;3.28;;
11711;SDS011;5912;51.034;6.984;2023-08-24T02:51:54;4.68;;;3.30;;
11711;SDS011;5912;51.034;6.984;2023-08-24T02:54:22;5.82;;;3.47;;
11711;SDS011;5912;51.034;6.984;2023-08-24T02:56:48;5.65;;;3.22;;
11711;SDS011;5912;51.034;6.984;2023-08-24T02:59:19;5.13;;;3.20;;
11711;SDS011;5912;51.034;6.984;2023-08-24T03:01:44;6.07;;;3.60;;
11711;SDS011;5912;51.034;6.984;2023-08-24T03:04:25;4.70;;;3.35;;
11711;SDS011;5912;51.034;6.984;2023-08-24T03:07:00;5.00;;;3.47;;
11711;SDS011;5912;51.034;6.984;2023-08-24T03:09:32;6.65;;;3.38;;
11711;SDS011;5912;51.034;6.984;2023-08-24T03:12:03;5.68;;;3.17;;
11711;SDS011;5912;51.034;6.984;2023-08-24T03:14:29;3.95;;;3.15;;
11711;SDS011;5912;51.034;6.984;2023-08-24T03:16:55;4.18;;;3.13;;
11711;SDS011;5912;51.034;6.984;2023-08-24T03:19:20;4.80;;;3.20;;
11711;SDS011;5912;51.034;6.984;2023-08-24T03:21:45;4.32;;;3.50;;
11711;SDS011;5912;51.034;6.984;2023-08-24T03:24:10;5.28;;;3.05;;
11711;SDS011;5912;51.034;6.984;2023-08-24T03:26:45;3.28;;;2.83;;
11711;SDS011;5912;51.034;6.984;2023-08-24T03:29:13;3.83;;;2.80;;
11711;SDS011;5912;51.034;6.984;2023-08-24T03:31:44;4.22;;;2.85;;
11711;SDS011;5912;51.034;6.984;2023-08-24T03:34:09;3.10;;;2.80;;
11711;SDS011;5912;51.034;6.984;2023-08-24T03:36:35;4.43;;;2.97;;
11711;SDS011;5912;51.034;6.984;2023-08-24T03:39:03;4.18;;;2.85;;
11711;SDS011;5912;51.034;6.984;2023-08-24T03:41:31;4.05;;;2.67;;
11711;SDS011;5912;51.034;6.984;2023-08-24T03:43:59;3.58;;;2.72;;
11711;SDS011;5912;51.034;6.984;2023-08-24T03:46:31;3.50;;;2.60;;
11711;SDS011;5912;51.034;6.984;2023-08-24T03:49:02;3.03;;;2.30;;
11711;SDS011;5912;51.034;6.984;2023-08-24T03:51:30;3.45;;;3.10;;
11711;SDS011;5912;51.034;6.984;2023-08-24T03:53:55;5.10;;;2.70;;
11711;SDS011;5912;51.034;6.984;2023-08-24T03:56:24;5.43;;;2.97;;
11711;SDS011;5912;51.034;6.984;2023-08-24T03:58:52;3.15;;;2.67;;
11711;SDS011;5912;51.034;6.984;2023-08-24T04:01:24;3.70;;;2.80;;
11711;SDS011;5912;51.034;6.984;2023-08-24T04:03:58;4.78;;;3.13;;
11711;SDS011;5912;51.034;6.984;2023-08-24T04:06:27;3.60;;;2.80;;
11711;SDS011;5912;51.034;6.984;2023-08-24T04:08:58;4.97;;;3.05;;
11711;SDS011;5912;51.034;6.984;2023-08-24T04:11:23;3.17;;;2.75;;
11711;SDS011;5912;51.034;6.984;2023-08-24T04:13:48;3.50;;;2.83;;
11711;SDS011;5912;51.034;6.984;2023-08-24T04:16:14;4.72;;;3.20;;
11711;SDS011;5912;51.034;6.984;2023-08-24T04:18:51;3.10;;;2.40;;
11711;SDS011;5912;51.034;6.984;2023-08-24T04:21:17;4.95;;;2.92;;
11711;SDS011;5912;51.034;6.984;2023-08-24T04:23:51;5.03;;;3.30;;
11711;SDS011;5912;51.034;6.984;2023-08-24T04:26:16;5.32;;;3.45;;
11711;SDS011;5912;51.034;6.984;2023-08-24T04:28:54;4.35;;;3.40;;
11711;SDS011;5912;51.034;6.984;2023-08-24T04:31:19;4.95;;;3.30;;
11711;SDS011;5912;51.034;6.984;2023-08-24T04:33:48;4.93;;;3.67;;
11711;SDS011;5912;51.034;6.984;2023-08-24T04:36:19;4.32;;;3.70;;
11711;SDS011;5912;51.034;6.984;2023-08-24T04:38:51;4.75;;;3.40;;
11711;SDS011;5912;51.034;6.984;2023-08-24T04:41:16;5.65;;;3.55;;
11711;SDS011;5912;51.034;6.984;2023-08-24T04:43:52;4.93;;;3.13;;
11711;SDS011;5912;51.034;6.984;2023-08-24T04:46:17;5.65;;;3.67;;
11711;SDS011;5912;51.034;6.984;2023-08-24T04:48:43;3.88;;;3.20;;
11711;SDS011;5912;51.034;6.984;2023-08-24T04:51:08;4.22;;;3.25;;
11711;SDS011;5912;51.034;6.984;2023-08-24T04:53:33;5.00;;;3.75;;
11711;SDS011;5912;51.034;6.984;2023-08-24T04:56:11;6.70;;;3.80;;
11711;SDS011;5912;51.034;6.984;2023-08-24T04:58:36;5.60;;;4.25;;
11711;SDS011;5912;51.034;6.984;2023-08-24T05:01:06;7.25;;;3.70;;
11711;SDS011;5912;51.034;6.984;2023-08-24T05:03:31;7.30;;;4.00;;
11711;SDS011;5912;51.034;6.984;2023-08-24T05:06:00;6.05;;;3.60;;
11711;SDS011;5912;51.034;6.984;2023-08-24T05:08:31;6.15;;;4.35;;
11711;SDS011;5912;51.034;6.984;2023-08-24T05:10:59;4.78;;;3.63;;
11711;SDS011;5912;51.034;6.984;2023-08-24T05:13:26;5.85;;;4.00;;
11711;SDS011;5912;51.034;6.984;2023-08-24T05:15:54;4.75;;;3.25;;
11711;SDS011;5912;51.034;6.984;2023-08-24T05:18:25;4.30;;;3.88;;
11711;SDS011;5912;51.034;6.984;2023-08-24T05:20:51;5.38;;;3.78;;
11711;SDS011;5912;51.034;6.984;2023-08-24T05:23:16;5.07;;;4.38;;
11711;SDS011;5912;51.034;6.984;2023-08-24T05:25:42;5.55;;;3.90;;
11711;SDS011;5912;51.034;6.984;2023-08-24T05:28:07;6.75;;;4.15;;
11711;SDS011;5912;51.034;6.984;2023-08-24T05:30:33;5.82;;;4.18;;
11711;SDS011;5912;51.034;6.984;2023-08-24T05:32:58;4.97;;;3.80;;
11711;SDS011;5912;51.034;6.984;2023-08-24T05:35:23;6.82;;;4.07;;
11711;SDS011;5912;51.034;6.984;2023-08-24T05:40:42;6.50;;;4.38;;
11711;SDS011;5912;51.034;6.984;2023-08-24T05:43:08;6.47;;;4.22;;
11711;SDS011;5912;51.034;6.984;2023-08-24T05:45:35;6.90;;;4.28;;
11711;SDS011;5912;51.034;6.984;2023-08-24T05:48:16;5.82;;;4.45;;
11711;SDS011;5912;51.034;6.984;2023-08-24T05:50:45;8.90;;;3.80;;
11711;SDS011;5912;51.034;6.984;2023-08-24T05:53:14;5.72;;;4.05;;
11711;SDS011;5912;51.034;6.984;2023-08-24T05:55:42;5.53;;;4.15;;
11711;SDS011;5912;51.034;6.984;2023-08-24T05:58:08;8.05;;;3.92;;
11711;SDS011;5912;51.034;6.984;2023-08-24T06:00:33;4.78;;;3.80;;
11711;SDS011;5912;51.034;6.984;2023-08-24T06:02:59;5.78;;;3.92;;
11711;SDS011;5912;51.034;6.984;2023-08-24T06:05:25;6.63;;;4.32;;
11711;SDS011;5912;51.034;6.984;2023-08-24T06:08:03;4.78;;;4.07;;
11711;SDS011;5912;51.034;6.984;2023-08-24T06:10:29;6.22;;;4.10;;
11711;SDS011;5912;51.034;6.984;2023-08-24T06:12:55;8.55;;;4.03;;
11711;SDS011;5912;51.034;6.984;2023-08-24T06:15:21;3.75;;;3.45;;
11711;SDS011;5912;51.034;6.984;2023-08-24T06:18:01;4.90;;;4.07;;
11711;SDS011;5912;51.034;6.984;2023-08-24T06:20:35;4.75;;;3.50;;
11711;SDS011;5912;51.034;6.984;2023-08-24T06:23:13;5.32;;;3.63;;
11711;SDS011;5912;51.034;6.984;2023-08-24T06:25:38;4.50;;;3.30;;
11711;SDS011;5912;51.034;6.984;2023-08-24T06:28:10;5.70;;;3.60;;
11711;SDS011;5912;51.034;6.984;2023-08-24T06:30:40;4.70;;;3.75;;
11711;SDS011;5912;51.034;6.984;2023-08-24T06:33:18;5.18;;;3.80;;
11711;SDS011;5912;51.034;6.984;2023-08-24T06:35:46;4.97;;;3.85;;
11711;SDS011;5912;51.034;6.984;2023-08-24T06:38:15;5.38;;;4.18;;
11711;SDS011;5912;51.034;6.984;2023-08-24T06:40:41;5.15;;;3.72;;
11711;SDS011;5912;51.034;6.984;2023-08-24T06:43:15;6.43;;;4.03;;
11711;SDS011;5912;51.034;6.984;2023-08-24T06:45:41;5.38;;;3.88;;
11711;SDS011;5912;51.034;6.984;2023-08-24T06:48:06;8.07;;;3.70;;
11711;SDS011;5912;51.034;6.984;2023-08-24T06:50:35;7.07;;;3.45;;
11711;SDS011;5912;51.034;6.984;2023-08-24T06:53:07;3.53;;;2.60;;
11711;SDS011;5912;51.034;6.984;2023-08-24T06:55:33;4.68;;;3.47;;
11711;SDS011;5912;51.034;6.984;2023-08-24T06:58:07;7.90;;;3.67;;
11711;SDS011;5912;51.034;6.984;2023-08-24T07:00:42;4.57;;;3.17;;
11711;SDS011;5912;51.034;6.984;2023-08-24T07:03:07;5.00;;;3.65;;
11711;SDS011;5912;51.034;6.984;2023-08-24T07:05:32;4.28;;;2.80;;
11711;SDS011;5912;51.034;6.984;2023-08-24T07:08:04;4.45;;;2.80;;
11711;SDS011;5912;51.034;6.984;2023-08-24T07:10:39;4.00;;;2.90;;
11711;SDS011;5912;51.034;6.984;2023-08-24T07:15:54;4.97;;;2.38;;
11711;SDS011;5912;51.034;6.984;2023-08-24T07:18:26;3.83;;;2.70;;
11711;SDS011;5912;51.034;6.984;2023-08-24T07:20:51;2.55;;;2.22;;
11711;SDS011;5912;51.034;6.984;2023-08-24T07:23:26;3.83;;;2.60;;
11711;SDS011;5912;51.034;6.984;2023-08-24T07:26:03;3.95;;;2.45;;
11711;SDS011;5912;51.034;6.984;2023-08-24T07:28:30;6.30;;;2.70;;
11711;SDS011;5912;51.034;6.984;2023-08-24T07:30:55;4.35;;;2.35;;
11711;SDS011;5912;51.034;6.984;2023-08-24T07:33:21;5.47;;;2.15;;
11711;SDS011;5912;51.034;6.984;2023-08-24T07:35:52;3.83;;;2.10;;
11711;SDS011;5912;51.034;6.984;2023-08-24T07:38:24;4.50;;;2.28;;
11711;SDS011;5912;51.034;6.984;2023-08-24T07:41:01;3.25;;;1.80;;
11711;SDS011;5912;51.034;6.984;2023-08-24T07:43:28;3.75;;;2.13;;
11711;SDS011;5912;51.034;6.984;2023-08-24T07:45:54;2.92;;;2.03;;
11711;SDS011;5912;51.034;6.984;2023-08-24T07:48:19;4.38;;;2.45;;
11711;SDS011;5912;51.034;6.984;2023-08-24T07:50:45;4.35;;;2.13;;
11711;SDS011;5912;51.034;6.984;2023-08-24T07:53:10;5.78;;;2.10;;
11711;SDS011;5912;51.034;6.984;2023-08-24T07:55:45;3.35;;;2.00;;
11711;SDS011;5912;51.034;6.984;2023-08-24T07:58:13;4.28;;;1.85;;
11711;SDS011;5912;51.034;6.984;2023-08-24T08:00:39;1.95;;;1.55;;
11711;SDS011;5912;51.034;6.984;2023-08-24T08:03:13;2.80;;;1.88;;
11711;SDS011;5912;51.034;6.984;2023-08-24T08:05:45;5.18;;;1.98;;
11711;SDS011;5912;51.034;6.984;2023-08-24T08:08:14;3.05;;;1.85;;
11711;SDS011;5912;51.034;6.984;2023-08-24T08:10:59;5.63;;;2.42;;
11711;SDS011;5912;51.034;6.984;2023-08-24T08:13:26;2.45;;;1.80;;
11711;SDS011;5912;51.034;6.984;2023-08-24T08:16:02;2.17;;;1.70;;
11711;SDS011;5912;51.034;6.984;2023-08-24T08:21:20;1.90;;;1.63;;
11711;SDS011;5912;51.034;6.984;2023-08-24T08:23:54;5.85;;;1.80;;
11711;SDS011;5912;51.034;6.984;2023-08-24T08:26:19;2.20;;;1.77;;
11711;SDS011;5912;51.034;6.984;2023-08-24T08:29:03;4.10;;;2.30;;
11711;SDS011;5912;51.034;6.984;2023-08-24T08:31:28;2.90;;;1.85;;
11711;SDS011;5912;51.034;6.984;2023-08-24T08:33:54;3.75;;;2.00;;
11711;SDS011;5912;51.034;6.984;2023-08-24T08:36:19;3.22;;;1.52;;
11711;SDS011;5912;51.034;6.984;2023-08-24T08:38:53;3.08;;;1.83;;
11711;SDS011;5912;51.034;6.984;2023-08-24T08:41:21;3.17;;;1.80;;
11711;SDS011;5912;51.034;6.984;2023-08-24T08:43:48;2.05;;;1.80;;
11711;SDS011;5912;51.034;6.984;2023-08-24T08:46:17;2.20;;;1.70;;
11711;SDS011;5912;51.034;6.984;2023-08-24T08:48:43;5.32;;;2.00;;
11711;SDS011;5912;51.034;6.984;2023-08-24T08:51:10;4.07;;;2.00;;
11711;SDS011;5912;51.034;6.984;2023-08-24T08:53:40;2.17;;;1.65;;
11711;SDS011;5912;51.034;6.984;2023-08-24T08:56:08;3.53;;;2.03;;
11711;SDS011;5912;51.034;6.984;2023-08-24T08:58:34;3.22;;;2.13;;
11711;SDS011;5912;51.034;6.984;2023-08-24T09:01:19;2.33;;;1.77;;
11711;SDS011;5912;51.034;6.984;2023-08-24T09:03:48;2.03;;;1.65;;
11711;SDS011;5912;51.034;6.984;2023-08-24T09:06:13;2.85;;;1.67;;
11711;SDS011;5912;51.034;6.984;2023-08-24T09:08:39;2.30;;;1.67;;
11711;SDS011;5912;51.034;6.984;2023-08-24T09:11:11;2.10;;;1.55;;
11711;SDS011;5912;51.034;6.984;2023-08-24T09:13:36;4.90;;;1.70;;
11711;SDS011;5912;51.034;6.984;2023-08-24T09:16:05;2.00;;;1.60;;
11711;SDS011;5912;51.034;6.984;2023-08-24T09:18:37;2.38;;;1.95;;
11711;SDS011;5912;51.034;6.984;2023-08-24T09:21:10;3.13;;;1.92;;
11711;SDS011;5912;51.034;6.984;2023-08-24T09:23:46;4.00;;;1.88;;
11711;SDS011;5912;51.034;6.984;2023-08-24T09:29:23;1.92;;;1.73;;
11711;SDS011;5912;51.034;6.984;2023-08-24T09:31:50;3.20;;;1.63;;
11711;SDS011;5912;51.034;6.984;2023-08-24T09:34:18;3.40;;;1.67;;
11711;SDS011;5912;51.034;6.984;2023-08-24T09:36:45;2.28;;;1.65;;
11711;SDS011;5912;51.034;6.984;2023-08-24T09:39:11;2.47;;;1.90;;
11711;SDS011;5912;51.034;6.984;2023-08-24T09:41:48;2.30;;;1.80;;
11711;SDS011;5912;51.034;6.984;2023-08-24T09:44:14;3.65;;;1.80;;
11711;SDS011;5912;51.034;6.984;2023-08-24T09:46:44;4.50;;;1.88;;
11711;SDS011;5912;51.034;6.984;2023-08-24T09:49:10;1.83;;;1.45;;
11711;SDS011;5912;51.034;6.984;2023-08-24T09:51:37;4.35;;;1.95;;
11711;SDS011;5912;51.034;6.984;2023-08-24T09:54:09;1.90;;;1.67;;
11711;SDS011;5912;51.034;6.984;2023-08-24T09:56:36;2.25;;;2.05;;
11711;SDS011;5912;51.034;6.984;2023-08-24T09:59:18;3.75;;;1.70;;
11711;SDS011;5912;51.034;6.984;2023-08-24T10:01:58;2.60;;;1.67;;
11711;SDS011;5912;51.034;6.984;2023-08-24T10:04:28;3.72;;;1.77;;
11711;SDS011;5912;51.034;6.984;2023-08-24T10:06:59;3.05;;;1.77;;
11711;SDS011;5912;51.034;6.984;2023-08-24T10:12:26;2.20;;;1.80;;
11711;SDS011;5912;51.034;6.984;2023-08-24T10:15:06;2.20;;;2.00;;
11711;SDS011;5912;51.034;6.984;2023-08-24T10:17:32;4.15;;;2.38;;
11711;SDS011;5912;51.034;6.984;2023-08-24T10:20:32;3.17;;;1.73;;
11711;SDS011;5912;51.034;6.984;2023-08-24T10:23:11;2.80;;;2.25;;
11711;SDS011;5912;51.034;6.984;2023-08-24T10:25:37;3.05;;;2.00;;
11711;SDS011;5912;51.034;6.984;2023-08-24T10:28:04;3.40;;;2.10;;
11711;SDS011;5912;51.034;6.984;2023-08-24T10:30:49;5.38;;;2.00;;
11711;SDS011;5912;51.034;6.984;2023-08-24T10:33:15;2.78;;;2.05;;
11711;SDS011;5912;51.034;6.984;2023-08-24T10:35:53;3.38;;;1.92;;
11711;SDS011;5912;51.034;6.984;2023-08-24T10:38:22;2.63;;;1.90;;
11711;SDS011;5912;51.034;6.984;2023-08-24T10:41:19;2.33;;;1.58;;
11711;SDS011;5912;51.034;6.984;2023-08-24T10:44:06;2.47;;;1.70;;
11711;SDS011;5912;51.034;6.984;2023-08-24T10:46:41;3.78;;;1.98;;
11711;SDS011;5912;51.034;6.984;2023-08-24T10:49:07;3.00;;;2.00;;
11711;SDS011;5912;51.034;6.984;2023-08-24T10:51:44;2.53;;;1.80;;
11711;SDS011;5912;51.034;6.984;2023-08-24T10:56:57;2.42;;;1.80;;
11711;SDS011;5912;51.034;6.984;2023-08-24T10:59:37;3.25;;;1.92;;
11711;SDS011;5912;51.034;6.984;2023-08-24T11:02:03;6.20;;;1.88;;
11711;SDS011;5912;51.034;6.984;2023-08-24T11:04:29;3.50;;;2.15;;
11711;SDS011;5912;51.034;6.984;2023-08-24T11:06:55;2.90;;;1.92;;
11711;SDS011;5912;51.034;6.984;2023-08-24T11:09:21;2.65;;;1.95;;
11711;SDS011;5912;51.034;6.984;2023-08-24T11:12:00;2.88;;;1.75;;
11711;SDS011;5912;51.034;6.984;2023-08-24T11:14:50;3.63;;;2.15;;
11711;SDS011;5912;51.034;6.984;2023-08-24T11:17:30;3.45;;;1.85;;
11711;SDS011;5912;51.034;6.984;2023-08-24T11:19:58;4.60;;;1.85;;
11711;SDS011;5912;51.034;6.984;2023-08-24T11:22:24;7.55;;;2.63;;
11711;SDS011;5912;51.034;6.984;2023-08-24T11:24:50;2.53;;;1.83;;
11711;SDS011;5912;51.034;6.984;2023-08-24T11:27:34;2.53;;;1.95;;
11711;SDS011;5912;51.034;6.984;2023-08-24T11:30:03;2.35;;;1.50;;
11711;SDS011;5912;51.034;6.984;2023-08-24T11:35:20;5.22;;;2.45;;
11711;SDS011;5912;51.034;6.984;2023-08-24T11:37:51;6.07;;;2.58;;
11711;SDS011;5912;51.034;6.984;2023-08-24T11:40:43;4.22;;;1.92;;
11711;SDS011;5912;51.034;6.984;2023-08-24T11:43:09;3.25;;;2.08;;
11711;SDS011;5912;51.034;6.984;2023-08-24T11:45:35;3.03;;;1.73;;
11711;SDS011;5912;51.034;6.984;2023-08-24T11:48:02;6.90;;;2.47;;
11711;SDS011;5912;51.034;6.984;2023-08-24T11:50:47;5.63;;;2.42;;
11711;SDS011;5912;51.034;6.984;2023-08-24T11:53:16;3.25;;;2.30;;
11711;SDS011;5912;51.034;6.984;2023-08-24T11:55:54;2.75;;;2.10;;
11711;SDS011;5912;51.034;6.984;2023-08-24T11:58:20;3.97;;;2.70;;
11711;SDS011;5912;51.034;6.984;2023-08-24T12:00:45;3.30;;;1.83;;
11711;SDS011;5912;51.034;6.984;2023-08-24T12:03:11;6.25;;;3.10;;
11711;SDS011;5912;51.034;6.984;2023-08-24T12:06:12;5.50;;;3.50;;
11711;SDS011;5912;51.034;6.984;2023-08-24T12:08:45;8.30;;;3.78;;
11711;SDS011;5912;51.034;6.984;2023-08-24T12:11:24;5.90;;;2.72;;
11711;SDS011;5912;51.034;6.984;2023-08-24T12:14:07;6.03;;;2.88;;
11711;SDS011;5912;51.034;6.984;2023-08-24T12:16:40;9.65;;;4.25;;
11711;SDS011;5912;51.034;6.984;2023-08-24T12:19:16;10.63;;;4.22;;
11711;SDS011;5912;51.034;6.984;2023-08-24T12:21:43;4.20;;;3.10;;
11711;SDS011;5912;51.034;6.984;2023-08-24T12:24:13;5.75;;;2.88;;
11711;SDS011;5912;51.034;6.984;2023-08-24T12:26:42;3.83;;;2.75;;
11711;SDS011;5912;51.034;6.984;2023-08-24T12:29:13;4.60;;;2.17;;
11711;SDS011;5912;51.034;6.984;2023-08-24T12:34:55;2.97;;;2.22;;
11711;SDS011;5912;51.034;6.984;2023-08-24T12:37:30;2.70;;;2.20;;
11711;SDS011;5912;51.034;6.984;2023-08-24T12:39:55;4.35;;;2.45;;
11711;SDS011;5912;51.034;6.984;2023-08-24T12:42:27;2.78;;;2.30;;
11711;SDS011;5912;51.034;6.984;2023-08-24T12:44:52;5.03;;;2.47;;
11711;SDS011;5912;51.034;6.984;2023-08-24T12:47:17;4.45;;;2.20;;
11711;SDS011;5912;51.034;6.984;2023-08-24T12:49:43;3.55;;;2.50;;
11711;SDS011;5912;51.034;6.984;2023-08-24T12:52:17;5.05;;;2.30;;
11711;SDS011;5912;51.034;6.984;2023-08-24T12:54:49;3.63;;;2.55;;
11711;SDS011;5912;51.034;6.984;2023-08-24T12:57:21;7.25;;;2.45;;
11711;SDS011;5912;51.034;6.984;2023-08-24T12:59:46;4.43;;;2.60;;
11711;SDS011;5912;51.034;6.984;2023-08-24T13:02:12;5.18;;;2.50;;
11711;SDS011;5912;51.034;6.984;2023-08-24T13:04:49;3.30;;;2.28;;
11711;SDS011;5912;51.034;6.984;2023-08-24T13:07:14;4.07;;;2.50;;
11711;SDS011;5912;51.034;6.984;2023-08-24T13:09:54;6.20;;;3.10;;
11711;SDS011;5912;51.034;6.984;2023-08-24T13:12:32;10.02;;;4.30;;
11711;SDS011;5912;51.034;6.984;2023-08-24T13:14:58;7.13;;;2.90;;
11711;SDS011;5912;51.034;6.984;2023-08-24T13:17:27;3.75;;;2.78;;
11711;SDS011;5912;51.034;6.984;2023-08-24T13:19:53;4.80;;;2.75;;
11711;SDS011;5912;51.034;6.984;2023-08-24T13:22:18;7.53;;;3.13;;
11711;SDS011;5912;51.034;6.984;2023-08-24T13:24:43;5.97;;;2.72;;
11711;SDS011;5912;51.034;6.984;2023-08-24T13:27:15;6.85;;;2.90;;
11711;SDS011;5912;51.034;6.984;2023-08-24T13:29:42;4.47;;;2.55;;
11711;SDS011;5912;51.034;6.984;2023-08-24T13:32:09;7.63;;;2.47;;
11711;SDS011;5912;51.034;6.984;2023-08-24T13:34:35;3.90;;;2.63;;
11711;SDS011;5912;51.034;6.984;2023-08-24T13:37:01;5.03;;;3.22;;
11711;SDS011;5912;51.034;6.984;2023-08-24T13:39:39;6.70;;;2.55;;
11711;SDS011;5912;51.034;6.984;2023-08-24T13:42:04;6.85;;;2.55;;
11711;SDS011;5912;51.034;6.984;2023-08-24T13:44:36;3.53;;;2.58;;
11711;SDS011;5912;51.034;6.984;2023-08-24T13:47:02;4.25;;;2.50;;
11711;SDS011;5912;51.034;6.984;2023-08-24T13:49:34;6.50;;;2.55;;
11711;SDS011;5912;51.034;6.984;2023-08-24T13:51:59;5.03;;;2.90;;
11711;SDS011;5912;51.034;6.984;2023-08-24T13:54:25;6.72;;;3.30;;
11711;SDS011;5912;51.034;6.984;2023-08-24T13:57:03;6.70;;;2.58;;
11711;SDS011;5912;51.034;6.984;2023-08-24T13:59:35;4.00;;;2.38;;
11711;SDS011;5912;51.034;6.984;2023-08-24T14:02:00;5.85;;;2.92;;
11711;SDS011;5912;51.034;6.984;2023-08-24T14:04:31;4.47;;;2.70;;
11711;SDS011;5912;51.034;6.984;2023-08-24T14:07:00;3.28;;;2.25;;
11711;SDS011;5912;51.034;6.984;2023-08-24T14:09:30;4.13;;;2.38;;
11711;SDS011;5912;51.034;6.984;2023-08-24T14:11:55;5.85;;;2.85;;
11711;SDS011;5912;51.034;6.984;2023-08-24T14:14:21;5.60;;;2.30;;
11711;SDS011;5912;51.034;6.984;2023-08-24T14:16:59;4.00;;;2.58;;
11711;SDS011;5912;51.034;6.984;2023-08-24T14:19:24;2.92;;;1.98;;
11711;SDS011;5912;51.034;6.984;2023-08-24T14:21:56;7.38;;;2.50;;
11711;SDS011;5912;51.034;6.984;2023-08-24T14:24:23;3.05;;;2.28;;
11711;SDS011;5912;51.034;6.984;2023-08-24T14:26:48;4.10;;;2.35;;
11711;SDS011;5912;51.034;6.984;2023-08-24T14:29:13;3.35;;;2.60;;
11711;SDS011;5912;51.034;6.984;2023-08-24T14:31:39;4.70;;;2.78;;
11711;SDS011;5912;51.034;6.984;2023-08-24T14:34:13;5.07;;;2.75;;
11711;SDS011;5912;51.034;6.984;2023-08-24T14:36:48;5.20;;;2.40;;
11711;SDS011;5912;51.034;6.984;2023-08-24T14:39:13;4.43;;;2.35;;
11711;SDS011;5912;51.034;6.984;2023-08-24T14:42:00;4.28;;;2.83;;
11711;SDS011;5912;51.034;6.984;2023-08-24T14:44:34;9.68;;;2.58;;
11711;SDS011;5912;51.034;6.984;2023-08-24T14:47:12;3.97;;;2.00;;
11711;SDS011;5912;51.034;6.984;2023-08-24T14:49:37;6.78;;;2.50;;
11711;SDS011;5912;51.034;6.984;2023-08-24T14:54:56;5.13;;;2.35;;
11711;SDS011;5912;51.034;6.984;2023-08-24T14:57:21;3.47;;;2.13;;
11711;SDS011;5912;51.034;6.984;2023-08-24T14:59:46;5.65;;;2.13;;
11711;SDS011;5912;51.034;6.984;2023-08-24T15:02:12;5.13;;;2.15;;
11711;SDS011;5912;51.034;6.984;2023-08-24T15:04:37;3.40;;;2.22;;
11711;SDS011;5912;51.034;6.984;2023-08-24T15:07:14;3.65;;;2.20;;
11711;SDS011;5912;51.034;6.984;2023-08-24T15:09:40;4.18;;;2.45;;
11711;SDS011;5912;51.034;6.984;2023-08-24T15:12:05;5.00;;;2.10;;
11711;SDS011;5912;51.034;6.984;2023-08-24T15:14:30;2.75;;;2.10;;
11711;SDS011;5912;51.034;6.984;2023-08-24T15:17:11;3.70;;;2.25;;
11711;SDS011;5912;51.034;6.984;2023-08-24T15:19:45;3.88;;;2.15;;
11711;SDS011;5912;51.034;6.984;2023-08-24T15:22:10;4.18;;;1.73;;
11711;SDS011;5912;51.034;6.984;2023-08-24T15:24:36;5.50;;;2.08;;
11711;SDS011;5912;51.034;6.984;2023-08-24T15:27:01;2.83;;;1.70;;
11711;SDS011;5912;51.034;6.984;2023-08-24T15:29:32;4.70;;;1.80;;
11711;SDS011;5912;51.034;6.984;2023-08-24T15:32:04;4.15;;;1.77;;
11711;SDS011;5912;51.034;6.984;2023-08-24T15:34:32;3.70;;;2.00;;
11711;SDS011;5912;51.034;6.984;2023-08-24T15:36:58;5.90;;;1.85;;
11711;SDS011;5912;51.034;6.984;2023-08-24T15:39:36;4.78;;;1.60;;
11711;SDS011;5912;51.034;6.984;2023-08-24T15:42:03;4.97;;;1.92;;
11711;SDS011;5912;51.034;6.984;2023-08-24T15:44:29;4.28;;;1.95;;
11711;SDS011;5912;51.034;6.984;2023-08-24T15:46:54;5.25;;;2.35;;
11711;SDS011;5912;51.034;6.984;2023-08-24T15:49:19;6.15;;;2.20;;
11711;SDS011;5912;51.034;6.984;2023-08-24T15:54:35;3.42;;;2.25;;
11711;SDS011;5912;51.034;6.984;2023-08-24T15:57:00;5.50;;;2.80;;
11711;SDS011;5912;51.034;6.984;2023-08-24T15:59:29;10.05;;;3.90;;
11711;SDS011;5912;51.034;6.984;2023-08-24T16:01:57;5.97;;;3.65;;
11711;SDS011;5912;51.034;6.984;2023-08-24T16:04:22;6.93;;;2.55;;
11711;SDS011;5912;51.034;6.984;2023-08-24T16:06:47;5.47;;;2.15;;